Time;durP1;ratioP1;P1;durP2;ratioP2;P2;SDS_P1;SDS_P2;PMS_P1;PMS_P2;Temp;Humidity;BMP_temperature;BMP_pressure;BME280_temperature;BME280_humidity;BME280_pressure;Samples;Min_cycle;Max_cycle;Signal;HPM_P1;HPM_P2
2023/09/19 00:00:33;;;;;;;0.40;0.40;;;16.30;99.90;;;;;;5071599;28;20781;-63
2023/09/19 00:02:59;;;;;;;0.60;0.60;;;16.30;99.90;;;;;;5071689;28;20909;-63
2023/09/19 00:05:28;;;;;;;1.30;1.20;;;16.30;99.90;;;;;;5071535;28;20758;-63
2023/09/19 00:07:58;;;;;;;0.60;0.60;;;16.30;99.90;;;;;;5071578;28;20236;-63
2023/09/19 00:10:24;;;;;;;0.40;0.40;;;16.30;99.90;;;;;;5071436;28;20419;-63
2023/09/19 00:12:57;;;;;;;0.90;0.90;;;16.30;99.90;;;;;;5071450;28;20400;-63
2023/09/19 00:15:23;;;;;;;0.63;0.63;;;16.30;99.90;;;;;;5071463;28;20435;-63
2023/09/19 00:17:48;;;;;;;0.50;0.50;;;16.40;99.90;;;;;;5071470;28;20483;-63
2023/09/19 00:20:17;;;;;;;0.40;0.40;;;16.50;99.90;;;;;;5071683;28;20174;-63
2023/09/19 00:22:43;;;;;;;0.40;0.40;;;16.50;99.90;;;;;;5071506;28;20240;-64
2023/09/19 00:25:09;;;;;;;0.60;0.60;;;16.60;99.90;;;;;;5071436;28;20404;-64
2023/09/19 00:27:41;;;;;;;0.40;0.40;;;16.60;99.90;;;;;;5071231;28;20908;-64
2023/09/19 00:30:09;;;;;;;0.40;0.40;;;16.60;99.90;;;;;;5071666;28;20408;-64
2023/09/19 00:32:34;;;;;;;0.53;0.53;;;16.60;99.90;;;;;;5071335;28;20404;-64
2023/09/19 00:35:00;;;;;;;0.47;0.47;;;16.60;99.90;;;;;;5071117;28;20455;-64
2023/09/19 00:37:26;;;;;;;0.60;0.60;;;16.60;99.90;;;;;;5071102;28;20180;-64
2023/09/19 00:39:52;;;;;;;0.83;0.70;;;16.60;99.90;;;;;;5071218;28;20172;-64
2023/09/19 00:42:20;;;;;;;0.93;0.93;;;16.70;99.90;;;;;;5071242;28;20212;-65
2023/09/19 00:44:47;;;;;;;0.60;0.50;;;16.60;99.90;;;;;;5071216;28;20501;-63
2023/09/19 00:47:17;;;;;;;0.50;0.50;;;16.50;99.90;;;;;;5070818;28;20530;-64
2023/09/19 00:49:44;;;;;;;0.50;0.50;;;16.40;99.90;;;;;;5071243;28;20400;-64
2023/09/19 00:52:12;;;;;;;1.47;0.60;;;16.50;99.90;;;;;;5071204;28;20408;-64
2023/09/19 00:54:37;;;;;;;0.40;0.40;;;16.50;99.90;;;;;;5070962;28;20465;-64
2023/09/19 00:57:04;;;;;;;0.40;0.40;;;16.50;99.90;;;;;;5070983;28;20803;-64
2023/09/19 00:59:30;;;;;;;0.80;0.80;;;16.50;99.90;;;;;;5074086;28;20168;-63
2023/09/19 01:01:56;;;;;;;0.47;0.47;;;16.60;99.90;;;;;;5075037;28;20400;-64
2023/09/19 01:04:23;;;;;;;0.40;0.40;;;16.60;99.90;;;;;;5074930;28;20399;-64
2023/09/19 01:06:53;;;;;;;0.63;0.63;;;16.60;99.90;;;;;;5074405;28;20460;-63
2023/09/19 01:09:20;;;;;;;0.40;0.40;;;16.60;99.90;;;;;;5074778;28;20408;-64
2023/09/19 01:11:50;;;;;;;0.30;0.30;;;16.60;99.90;;;;;;5074969;28;20431;-64
2023/09/19 01:14:22;;;;;;;0.30;0.30;;;16.60;99.90;;;;;;5074706;28;20459;-64
2023/09/19 01:17:01;;;;;;;0.43;0.43;;;16.50;99.90;;;;;;5074334;28;20435;-64
2023/09/19 01:19:51;;;;;;;0.30;0.30;;;16.50;99.90;;;;;;5074709;28;20920;-64
2023/09/19 01:22:33;;;;;;;0.77;0.40;;;16.50;99.90;;;;;;5074534;28;20404;-64
2023/09/19 01:25:26;;;;;;;0.40;0.40;;;16.40;99.90;;;;;;5074384;28;20422;-64
2023/09/19 01:28:20;;;;;;;0.60;0.60;;;16.10;99.90;;;;;;5074395;28;20464;-63
2023/09/19 01:30:46;;;;;;;0.30;0.30;;;16.10;99.90;;;;;;5074543;28;20756;-64
2023/09/19 01:33:12;;;;;;;0.50;0.40;;;16.10;99.90;;;;;;5074296;28;20396;-64
2023/09/19 01:35:41;;;;;;;0.40;0.40;;;16.10;99.90;;;;;;5074195;28;20430;-64
2023/09/19 01:38:11;;;;;;;0.60;0.60;;;16.10;99.90;;;;;;5074514;28;20212;-64
2023/09/19 01:40:42;;;;;;;0.63;0.47;;;16.10;99.90;;;;;;5074468;28;20404;-64
2023/09/19 01:43:31;;;;;;;1.00;0.60;;;16.20;99.90;;;;;;5074442;28;20408;-64
2023/09/19 01:46:25;;;;;;;0.40;0.40;;;16.30;99.90;;;;;;5074012;28;20416;-64
2023/09/19 01:49:08;;;;;;;0.40;0.40;;;16.30;99.90;;;;;;5074031;28;20405;-64
2023/09/19 01:51:52;;;;;;;1.90;0.40;;;16.10;99.90;;;;;;5074081;28;20400;-64
2023/09/19 01:54:26;;;;;;;0.40;0.40;;;16.10;99.90;;;;;;5074092;28;20820;-63
2023/09/19 01:57:21;;;;;;;0.40;0.40;;;16.10;99.90;;;;;;5073579;28;20450;-64
2023/09/19 02:00:00;;;;;;;0.40;0.40;;;16.00;99.90;;;;;;5074149;28;20924;-64
2023/09/19 02:02:29;;;;;;;0.70;0.70;;;16.10;99.90;;;;;;5073890;28;20753;-64
2023/09/19 02:04:55;;;;;;;1.43;0.40;;;16.20;99.90;;;;;;5073675;28;20416;-64
2023/09/19 02:07:20;;;;;;;0.50;0.50;;;16.20;99.90;;;;;;5073425;28;20423;-64
2023/09/19 02:09:47;;;;;;;0.50;0.50;;;16.30;99.90;;;;;;5072670;28;20522;-64
2023/09/19 02:12:15;;;;;;;0.50;0.50;;;16.30;99.90;;;;;;5073733;28;20169;-64
2023/09/19 02:14:41;;;;;;;2.00;0.50;;;16.30;99.90;;;;;;5073591;28;20477;-64
2023/09/19 02:17:11;;;;;;;0.30;0.30;;;16.30;99.90;;;;;;5073277;28;20420;-64
2023/09/19 02:19:38;;;;;;;1.33;0.50;;;16.30;99.90;;;;;;5073535;28;20544;-63
2023/09/19 02:22:09;;;;;;;0.50;0.50;;;16.20;99.90;;;;;;5073346;28;20406;-64
2023/09/19 02:24:36;;;;;;;0.40;0.40;;;16.10;99.90;;;;;;5073482;28;20411;-64
2023/09/19 02:27:04;;;;;;;0.70;0.67;;;16.10;99.90;;;;;;5073169;28;20459;-63
2023/09/19 02:29:30;;;;;;;0.40;0.40;;;16.10;99.90;;;;;;5073338;28;20412;-64
2023/09/19 02:31:55;;;;;;;0.50;0.43;;;16.10;99.90;;;;;;5073368;28;20406;-64
2023/09/19 02:34:22;;;;;;;0.30;0.30;;;16.10;99.90;;;;;;5073250;28;20690;-64
2023/09/19 02:36:47;;;;;;;0.50;0.50;;;16.20;99.90;;;;;;5072815;28;20436;-64
2023/09/19 02:39:13;;;;;;;0.50;0.50;;;16.20;99.90;;;;;;5073245;28;20487;-64
2023/09/19 02:41:39;;;;;;;1.10;0.70;;;16.20;99.90;;;;;;5073220;28;20227;-64
2023/09/19 02:44:07;;;;;;;3.27;0.87;;;16.20;99.90;;;;;;5073020;28;20170;-64
2023/09/19 02:46:33;;;;;;;0.40;0.40;;;16.10;99.90;;;;;;5071417;28;20710;-64
2023/09/19 02:48:59;;;;;;;0.73;0.43;;;16.10;99.90;;;;;;5072998;28;20418;-64
2023/09/19 02:51:24;;;;;;;0.50;0.50;;;16.20;99.90;;;;;;5072822;28;20396;-64
2023/09/19 02:53:54;;;;;;;0.40;0.40;;;16.20;99.90;;;;;;5073062;28;20754;-64
2023/09/19 02:56:20;;;;;;;0.90;0.60;;;16.30;99.90;;;;;;5072456;28;20211;-63
2023/09/19 02:58:45;;;;;;;0.40;0.40;;;16.30;99.90;;;;;;5071433;28;20408;-64
2023/09/19 03:01:12;;;;;;;0.63;0.40;;;16.20;99.90;;;;;;5072966;28;20214;-64
2023/09/19 03:03:38;;;;;;;0.67;0.43;;;16.20;99.90;;;;;;5072756;28;20176;-64
2023/09/19 03:06:12;;;;;;;1.60;0.67;;;16.20;99.90;;;;;;5072495;28;20459;-63
2023/09/19 03:08:39;;;;;;;0.80;0.50;;;16.30;99.90;;;;;;5072626;28;20413;-64
2023/09/19 03:11:05;;;;;;;1.23;0.77;;;16.30;99.90;;;;;;5072549;28;20415;-64
2023/09/19 03:13:32;;;;;;;0.77;0.40;;;16.10;99.90;;;;;;5072245;28;20481;-64
2023/09/19 03:15:58;;;;;;;0.40;0.40;;;16.00;99.90;;;;;;5072109;28;20424;-64
2023/09/19 03:18:26;;;;;;;0.40;0.40;;;15.80;99.90;;;;;;5072442;28;20876;-64
2023/09/19 03:20:56;;;;;;;0.70;0.60;;;15.90;99.90;;;;;;5072144;28;20404;-64
2023/09/19 03:23:23;;;;;;;0.97;0.90;;;16.00;99.90;;;;;;5072369;28;20993;-64
2023/09/19 03:25:48;;;;;;;0.73;0.73;;;16.00;99.90;;;;;;5071804;28;20473;-64
2023/09/19 03:28:15;;;;;;;1.30;0.90;;;16.00;99.90;;;;;;5072074;28;20809;-63
2023/09/19 03:30:41;;;;;;;0.50;0.50;;;16.00;99.90;;;;;;5072234;28;20173;-64
2023/09/19 03:33:08;;;;;;;1.63;0.87;;;16.00;99.90;;;;;;5072659;28;20919;-63
2023/09/19 03:35:34;;;;;;;0.70;0.70;;;16.00;99.90;;;;;;5071706;28;20435;-64
2023/09/19 03:38:00;;;;;;;0.60;0.60;;;16.00;99.90;;;;;;5071899;28;20418;-64
2023/09/19 03:40:26;;;;;;;0.87;0.60;;;16.10;99.90;;;;;;5071976;28;20490;-64
2023/09/19 03:42:51;;;;;;;1.03;0.60;;;16.10;99.90;;;;;;5071961;28;20607;-64
2023/09/19 03:45:18;;;;;;;1.60;0.70;;;16.10;99.90;;;;;;5071826;28;20179;-64
2023/09/19 03:47:44;;;;;;;0.80;0.80;;;16.10;99.90;;;;;;5059550;28;20181;-64
2023/09/19 03:50:15;;;;;;;0.40;0.40;;;16.20;99.90;;;;;;5051842;28;20405;-64
2023/09/19 03:52:40;;;;;;;0.30;0.30;;;16.10;99.90;;;;;;5051882;28;20172;-64
2023/09/19 03:55:06;;;;;;;0.40;0.40;;;16.00;99.90;;;;;;5051477;28;20456;-64
2023/09/19 03:57:32;;;;;;;0.80;0.80;;;16.10;99.90;;;;;;5051543;28;20547;-63
2023/09/19 03:59:58;;;;;;;0.60;0.60;;;16.00;99.90;;;;;;5052036;28;20488;-64
2023/09/19 04:02:24;;;;;;;0.40;0.40;;;15.90;99.90;;;;;;5051724;28;20635;-64
2023/09/19 04:04:51;;;;;;;0.37;0.37;;;15.80;99.90;;;;;;5051533;28;20277;-64
2023/09/19 04:07:18;;;;;;;0.53;0.53;;;15.90;99.90;;;;;;5051226;28;20515;-64
2023/09/19 04:09:45;;;;;;;0.40;0.40;;;15.90;99.90;;;;;;5051529;28;20419;-64
2023/09/19 04:12:11;;;;;;;1.37;0.90;;;15.90;99.90;;;;;;5051398;28;20405;-63
2023/09/19 04:14:38;;;;;;;2.40;2.20;;;15.90;99.90;;;;;;5051329;28;20456;-64
2023/09/19 04:17:05;;;;;;;0.93;0.90;;;15.90;99.90;;;;;;5051092;28;20509;-64
2023/09/19 04:19:31;;;;;;;0.70;0.70;;;15.90;99.90;;;;;;5051469;28;20408;-64
2023/09/19 04:21:56;;;;;;;0.80;0.60;;;16.00;99.90;;;;;;5051468;28;20492;-64
2023/09/19 04:24:22;;;;;;;6.37;1.00;;;16.00;99.90;;;;;;5051801;28;20440;-64
2023/09/19 04:26:48;;;;;;;0.70;0.60;;;16.10;99.90;;;;;;5051127;28;20214;-64
2023/09/19 04:29:14;;;;;;;1.53;1.17;;;16.10;99.90;;;;;;5051529;28;20174;-64
2023/09/19 04:31:40;;;;;;;0.40;0.40;;;16.10;99.90;;;;;;5051432;28;20232;-63
2023/09/19 04:34:06;;;;;;;0.50;0.50;;;16.10;99.90;;;;;;5053766;28;20277;-63
2023/09/19 04:36:32;;;;;;;0.67;0.67;;;16.00;99.90;;;;;;5055186;28;20425;-64
2023/09/19 04:38:57;;;;;;;0.67;0.67;;;16.00;99.90;;;;;;5055351;28;20415;-64
2023/09/19 04:41:24;;;;;;;1.97;1.10;;;16.00;99.90;;;;;;5055436;28;20643;-64
2023/09/19 04:43:50;;;;;;;0.40;0.40;;;15.90;99.90;;;;;;5055557;28;20177;-64
2023/09/19 04:46:17;;;;;;;0.70;0.70;;;15.80;99.90;;;;;;5054932;28;20427;-63
2023/09/19 04:48:43;;;;;;;0.60;0.57;;;15.80;99.90;;;;;;5055322;28;20420;-64
2023/09/19 04:51:10;;;;;;;1.50;0.50;;;15.80;99.90;;;;;;5055284;28;20404;-64
2023/09/19 04:53:36;;;;;;;2.03;0.63;;;15.80;99.90;;;;;;5055992;28;20227;-63
2023/09/19 04:56:03;;;;;;;2.30;0.60;;;15.90;99.90;;;;;;5054858;28;21000;-63
2023/09/19 04:58:29;;;;;;;0.83;0.77;;;15.80;99.90;;;;;;5055068;28;20220;-63
2023/09/19 05:00:56;;;;;;;1.37;0.60;;;15.60;99.90;;;;;;5055163;28;20400;-64
2023/09/19 05:03:22;;;;;;;1.60;0.87;;;15.70;99.90;;;;;;5054983;28;20417;-64
2023/09/19 05:05:48;;;;;;;1.47;0.97;;;15.80;99.90;;;;;;5054420;28;20448;-64
2023/09/19 05:08:14;;;;;;;2.30;0.87;;;15.90;99.90;;;;;;5054821;28;20428;-63
2023/09/19 05:10:40;;;;;;;1.00;1.00;;;15.90;99.90;;;;;;5037130;28;20196;-64
2023/09/19 05:13:09;;;;;;;0.67;0.60;;;15.90;99.90;;;;;;5054695;28;20403;-64
2023/09/19 05:15:35;;;;;;;0.80;0.73;;;15.80;99.90;;;;;;5054387;28;20960;-64
2023/09/19 05:18:01;;;;;;;0.40;0.40;;;15.80;99.90;;;;;;5054572;28;20455;-63
2023/09/19 05:20:29;;;;;;;0.50;0.50;;;15.80;99.90;;;;;;5054725;28;20437;-64
2023/09/19 05:23:02;;;;;;;0.87;0.87;;;15.80;99.90;;;;;;5054530;28;20178;-64
2023/09/19 05:25:29;;;;;;;1.13;0.67;;;15.90;99.90;;;;;;5054195;28;20428;-63
2023/09/19 05:27:59;;;;;;;1.47;0.87;;;15.80;99.90;;;;;;5054438;28;20921;-63
2023/09/19 05:30:27;;;;;;;0.50;0.50;;;15.80;99.90;;;;;;5054576;28;20940;-63
2023/09/19 05:32:54;;;;;;;0.40;0.40;;;15.60;99.90;;;;;;5054311;28;20487;-64
2023/09/19 05:35:21;;;;;;;0.67;0.67;;;15.70;99.90;;;;;;5053795;28;20691;-63
2023/09/19 05:37:48;;;;;;;1.23;0.60;;;15.70;99.90;;;;;;5054116;28;20462;-64
2023/09/19 05:40:15;;;;;;;0.57;0.57;;;15.80;99.90;;;;;;5054425;28;20415;-64
2023/09/19 05:42:41;;;;;;;0.50;0.50;;;15.90;99.90;;;;;;5054283;28;20409;-64
2023/09/19 05:45:07;;;;;;;0.50;0.50;;;15.90;99.90;;;;;;5053984;28;20788;-64
2023/09/19 05:47:33;;;;;;;0.50;0.50;;;16.00;99.90;;;;;;5054008;28;20174;-64
2023/09/19 05:49:59;;;;;;;1.57;0.80;;;16.10;99.90;;;;;;5054205;28;20405;-63
2023/09/19 05:52:25;;;;;;;0.83;0.83;;;15.90;99.90;;;;;;5054370;28;20264;-64
2023/09/19 05:54:50;;;;;;;0.77;0.60;;;15.70;99.90;;;;;;5054139;28;20505;-64
2023/09/19 05:57:16;;;;;;;0.57;0.57;;;15.80;99.90;;;;;;5053626;28;20190;-64
2023/09/19 05:59:43;;;;;;;0.63;0.63;;;15.80;99.90;;;;;;5053839;28;20227;-64
2023/09/19 06:02:09;;;;;;;1.00;0.80;;;15.80;99.90;;;;;;5067994;28;20186;-64
2023/09/19 06:04:35;;;;;;;0.63;0.63;;;15.90;99.90;;;;;;5073761;28;20408;-63
2023/09/19 06:07:02;;;;;;;0.70;0.70;;;16.00;99.90;;;;;;5073278;28;20460;-63
2023/09/19 06:09:28;;;;;;;0.63;0.63;;;16.10;99.90;;;;;;5073749;28;20259;-63
2023/09/19 06:11:55;;;;;;;0.60;0.60;;;16.20;99.90;;;;;;5066248;28;20491;-63
2023/09/19 06:14:23;;;;;;;0.50;0.50;;;16.30;99.90;;;;;;5054457;28;20543;-63
2023/09/19 06:16:49;;;;;;;1.33;0.73;;;16.20;99.90;;;;;;5053039;28;20432;-63
2023/09/19 06:19:15;;;;;;;0.40;0.40;;;16.30;99.90;;;;;;5035675;28;20782;-63
2023/09/19 06:21:40;;;;;;;0.83;0.83;;;16.20;99.90;;;;;;5053545;28;20406;-64
2023/09/19 06:24:06;;;;;;;0.70;0.70;;;16.10;99.90;;;;;;5053725;28;20257;-64
2023/09/19 06:26:32;;;;;;;0.83;0.83;;;16.10;99.90;;;;;;5053087;28;20451;-64
2023/09/19 06:28:59;;;;;;;0.80;0.60;;;16.10;99.90;;;;;;5053444;28;20501;-63
2023/09/19 06:31:26;;;;;;;0.47;0.47;;;16.20;99.90;;;;;;5053238;28;20662;-64
2023/09/19 06:33:52;;;;;;;5.97;0.70;;;16.10;99.90;;;;;;5052909;28;20626;-63
2023/09/19 06:36:19;;;;;;;0.60;0.40;;;16.00;99.90;;;;;;5052223;28;20438;-64
2023/09/19 06:38:44;;;;;;;0.83;0.70;;;16.10;99.90;;;;;;5052101;28;20404;-65
2023/09/19 06:41:12;;;;;;;0.40;0.40;;;16.30;99.90;;;;;;5051928;28;20404;-65
2023/09/19 06:43:39;;;;;;;0.60;0.50;;;16.60;99.90;;;;;;5052063;28;20182;-66
2023/09/19 06:46:07;;;;;;;0.60;0.60;;;16.90;99.90;;;;;;5052191;28;20428;-65
2023/09/19 06:48:33;;;;;;;0.60;0.60;;;17.10;99.90;;;;;;5052963;28;20790;-66
2023/09/19 06:51:04;;;;;;;0.70;0.60;;;17.40;99.90;;;;;;5052686;28;20433;-64
2023/09/19 06:53:34;;;;;;;0.50;0.50;;;17.80;99.90;;;;;;5053081;28;20498;-64
2023/09/19 06:56:00;;;;;;;0.63;0.63;;;18.20;99.90;;;;;;5052254;28;20428;-65
2023/09/19 06:58:26;;;;;;;0.90;0.60;;;18.40;99.90;;;;;;5053004;28;20403;-64
2023/09/19 07:00:51;;;;;;;0.77;0.77;;;18.70;99.90;;;;;;5052777;28;20815;-65
2023/09/19 07:03:21;;;;;;;0.50;0.50;;;18.90;99.90;;;;;;5052122;28;20212;-66
2023/09/19 07:05:48;;;;;;;0.60;0.60;;;19.00;99.90;;;;;;5051893;28;20201;-65
2023/09/19 07:08:15;;;;;;;0.70;0.60;;;19.20;99.90;;;;;;5053201;28;20408;-64
2023/09/19 07:10:48;;;;;;;0.50;0.50;;;19.30;99.90;;;;;;5052524;28;20866;-64
2023/09/19 07:13:16;;;;;;;1.27;0.70;;;19.30;99.90;;;;;;5052164;28;20492;-65
2023/09/19 07:15:46;;;;;;;0.60;0.60;;;19.40;99.90;;;;;;5052353;28;20424;-66
2023/09/19 07:18:14;;;;;;;0.73;0.73;;;19.50;99.90;;;;;;5052771;28;20407;-65
2023/09/19 07:20:48;;;;;;;0.53;0.40;;;19.60;99.90;;;;;;5052357;28;20975;-66
2023/09/19 07:23:18;;;;;;;0.60;0.50;;;19.70;99.90;;;;;;5052728;28;20438;-67
2023/09/19 07:25:44;;;;;;;4.93;0.97;;;19.70;99.30;;;;;;5051885;28;20924;-65
2023/09/19 07:28:09;;;;;;;0.60;0.60;;;19.80;99.10;;;;;;5052241;28;20405;-64
2023/09/19 07:30:38;;;;;;;0.40;0.40;;;19.90;99.00;;;;;;5052506;28;20913;-65
2023/09/19 07:33:05;;;;;;;0.50;0.50;;;19.90;98.90;;;;;;5052597;28;20167;-64
2023/09/19 07:35:31;;;;;;;0.80;0.63;;;20.00;98.60;;;;;;5052013;28;20549;-64
2023/09/19 07:37:58;;;;;;;0.60;0.60;;;20.00;97.50;;;;;;5052024;28;20402;-63
2023/09/19 07:40:26;;;;;;;0.73;0.53;;;19.90;96.90;;;;;;5051869;28;20419;-62
2023/09/19 07:42:52;;;;;;;1.37;1.37;;;19.80;97.40;;;;;;5051620;28;20416;-62
2023/09/19 07:45:18;;;;;;;0.93;0.70;;;19.80;97.90;;;;;;5051270;28;20433;-62
2023/09/19 07:47:48;;;;;;;0.90;0.77;;;20.20;98.50;;;;;;5051803;28;20176;-62
2023/09/19 07:50:16;;;;;;;0.60;0.60;;;20.80;96.70;;;;;;5051844;28;20167;-63
2023/09/19 07:52:42;;;;;;;0.70;0.60;;;21.10;95.50;;;;;;5051679;28;20449;-62
2023/09/19 07:55:16;;;;;;;0.70;0.50;;;21.20;94.00;;;;;;5051377;28;20456;-62
2023/09/19 07:57:42;;;;;;;1.63;0.60;;;21.30;93.50;;;;;;5051773;28;20813;-62
2023/09/19 08:00:09;;;;;;;1.43;0.80;;;21.20;94.00;;;;;;5051656;28;20469;-62
2023/09/19 08:02:38;;;;;;;0.63;0.63;;;21.20;94.80;;;;;;5051744;28;20425;-62
2023/09/19 08:05:09;;;;;;;1.00;0.70;;;21.00;94.30;;;;;;5050592;28;20394;-62
2023/09/19 08:07:36;;;;;;;0.73;0.50;;;20.50;93.00;;;;;;5050277;28;20822;-62
2023/09/19 08:10:03;;;;;;;0.60;0.60;;;19.60;93.30;;;;;;5050489;28;20378;-62
2023/09/19 08:12:30;;;;;;;0.80;0.80;;;19.10;94.50;;;;;;5050762;28;20416;-62
2023/09/19 08:14:56;;;;;;;0.60;0.60;;;18.90;94.70;;;;;;5051139;28;20456;-62
2023/09/19 08:17:25;;;;;;;2.07;0.90;;;18.70;95.40;;;;;;5050336;28;20459;-62
2023/09/19 08:19:52;;;;;;;1.33;1.00;;;18.60;95.10;;;;;;5050908;28;20908;-62
2023/09/19 08:22:19;;;;;;;0.47;0.47;;;18.50;97.30;;;;;;5051406;28;20808;-63
2023/09/19 08:24:46;;;;;;;2.40;0.53;;;18.50;97.40;;;;;;5051482;28;20421;-63
2023/09/19 08:27:12;;;;;;;0.63;0.63;;;18.30;97.10;;;;;;5050928;28;20525;-62
2023/09/19 08:29:38;;;;;;;0.67;0.67;;;18.20;96.60;;;;;;5051277;28;20419;-63
2023/09/19 08:32:04;;;;;;;0.90;0.50;;;18.20;97.90;;;;;;5051032;28;20427;-62
2023/09/19 08:34:32;;;;;;;0.70;0.50;;;18.30;97.50;;;;;;5050609;28;20452;-62
2023/09/19 08:36:58;;;;;;;0.70;0.70;;;18.50;97.00;;;;;;5050826;28;20428;-62
2023/09/19 08:39:25;;;;;;;0.53;0.53;;;18.60;96.70;;;;;;5050714;28;20399;-61
2023/09/19 08:42:00;;;;;;;1.07;0.97;;;18.60;95.90;;;;;;5050704;28;20269;-61
2023/09/19 08:44:30;;;;;;;1.03;0.87;;;18.70;96.40;;;;;;5051201;28;20412;-62
2023/09/19 08:47:08;;;;;;;0.70;0.70;;;18.70;96.70;;;;;;5050784;28;20572;-61
2023/09/19 08:49:37;;;;;;;0.93;0.70;;;18.70;97.00;;;;;;5051138;28;20406;-61
2023/09/19 08:52:26;;;;;;;0.70;0.70;;;18.70;95.80;;;;;;5058943;28;20419;-64
2023/09/19 08:54:56;;;;;;;0.63;0.60;;;18.50;96.20;;;;;;5056130;28;20994;-61
2023/09/19 08:57:22;;;;;;;2.93;0.63;;;18.30;96.70;;;;;;5053997;28;20432;-61
2023/09/19 08:59:49;;;;;;;1.50;0.97;;;18.20;97.40;;;;;;5050766;28;20431;-61
2023/09/19 09:02:18;;;;;;;0.80;0.77;;;18.00;97.20;;;;;;5051081;28;20415;-61
2023/09/19 09:04:45;;;;;;;0.80;0.53;;;17.80;97.20;;;;;;5051023;28;20497;-61
2023/09/19 09:07:12;;;;;;;0.60;0.60;;;17.90;96.50;;;;;;5049937;28;20451;-61
2023/09/19 09:09:42;;;;;;;0.60;0.60;;;18.10;97.30;;;;;;5050718;28;20405;-61
2023/09/19 09:12:13;;;;;;;0.70;0.70;;;18.30;96.50;;;;;;5048989;28;20436;-61
2023/09/19 09:14:49;;;;;;;0.50;0.50;;;18.60;96.10;;;;;;5048821;28;20463;-61
2023/09/19 09:17:17;;;;;;;0.73;0.60;;;18.90;96.30;;;;;;5048969;28;20420;-61
2023/09/19 09:19:43;;;;;;;0.93;0.70;;;18.80;95.40;;;;;;5052065;28;20466;-61
2023/09/19 09:22:10;;;;;;;4.40;1.00;;;18.70;96.90;;;;;;5053341;28;20408;-61
2023/09/19 09:24:50;;;;;;;0.40;0.40;;;18.70;96.10;;;;;;5054634;28;20624;-61
2023/09/19 09:27:16;;;;;;;1.07;1.00;;;18.90;96.10;;;;;;5054161;28;20427;-61
2023/09/19 09:29:49;;;;;;;0.60;0.60;;;19.20;95.90;;;;;;5054629;28;20420;-61
2023/09/19 09:32:28;;;;;;;1.13;0.77;;;19.30;95.40;;;;;;5053393;28;20405;-61
2023/09/19 09:34:57;;;;;;;0.40;0.40;;;19.40;95.40;;;;;;5054247;28;20451;-61
2023/09/19 09:37:24;;;;;;;0.60;0.60;;;19.40;96.00;;;;;;5054113;28;20433;-61
2023/09/19 09:39:58;;;;;;;1.33;0.80;;;19.50;95.90;;;;;;5053765;28;20417;-64
2023/09/19 09:42:33;;;;;;;0.60;0.60;;;19.80;96.10;;;;;;5053760;28;20410;-63
2023/09/19 09:45:28;;;;;;;1.33;0.73;;;20.10;96.30;;;;;;5053565;28;21017;-64
2023/09/19 09:47:57;;;;;;;0.40;0.40;;;20.30;95.30;;;;;;5053738;28;20421;-63
2023/09/19 09:50:29;;;;;;;4.73;0.70;;;20.40;95.90;;;;;;5062174;28;20408;-64
2023/09/19 09:53:06;;;;;;;1.50;0.63;;;20.60;95.00;;;;;;5073690;28;20771;-64
2023/09/19 09:56:00;;;;;;;0.63;0.60;;;20.90;93.70;;;;;;5073015;28;20457;-64
2023/09/19 09:58:29;;;;;;;0.60;0.60;;;20.90;93.40;;;;;;5073950;28;20378;-64
2023/09/19 10:00:58;;;;;;;0.50;0.50;;;20.80;93.40;;;;;;5073733;28;20441;-64
2023/09/19 10:03:39;;;;;;;0.40;0.40;;;21.10;94.40;;;;;;5071984;28;20482;-63
2023/09/19 10:06:24;;;;;;;0.70;0.63;;;22.20;92.60;;;;;;5071537;28;20418;-64
2023/09/19 10:11:32;;;;;;;0.57;0.57;;;23.30;90.50;;;;;;5073113;28;20840;-64
2023/09/19 10:14:02;;;;;;;2.10;0.97;;;24.00;91.40;;;;;;5073234;28;20526;-64
2023/09/19 10:16:32;;;;;;;1.80;0.70;;;24.70;84.00;;;;;;5072592;28;20435;-64
2023/09/19 10:19:01;;;;;;;1.10;0.80;;;25.00;85.10;;;;;;5073729;28;20415;-64
2023/09/19 10:21:29;;;;;;;0.57;0.57;;;25.50;84.40;;;;;;5073595;28;20408;-64
2023/09/19 10:23:59;;;;;;;0.80;0.80;;;25.90;83.00;;;;;;5073288;28;20439;-64
2023/09/19 10:26:30;;;;;;;0.70;0.50;;;25.80;77.00;;;;;;5072789;28;20944;-64
2023/09/19 10:28:59;;;;;;;0.50;0.40;;;25.10;77.60;;;;;;5073333;28;20498;-64
2023/09/19 10:31:27;;;;;;;0.60;0.57;;;24.60;83.50;;;;;;5072475;28;20424;-64
2023/09/19 10:33:55;;;;;;;0.60;0.60;;;24.40;80.10;;;;;;5053749;28;20472;-64
2023/09/19 10:36:27;;;;;;;0.40;0.40;;;23.90;81.90;;;;;;5071037;28;20416;-63
2023/09/19 10:38:56;;;;;;;0.90;0.50;;;23.70;82.90;;;;;;5071758;28;20469;-63
2023/09/19 10:41:22;;;;;;;3.70;0.80;;;23.50;85.90;;;;;;5071257;28;20374;-63
2023/09/19 10:43:50;;;;;;;1.23;0.70;;;23.50;85.90;;;;;;5072349;28;20382;-63
2023/09/19 10:46:16;;;;;;;0.60;0.50;;;23.50;87.10;;;;;;5071791;28;20450;-63
2023/09/19 10:48:48;;;;;;;0.90;0.73;;;23.30;86.70;;;;;;5070382;28;21134;-68
2023/09/19 10:51:24;;;;;;;0.73;0.60;;;23.00;86.90;;;;;;5072902;28;20176;-70
2023/09/19 10:54:04;;;;;;;1.47;0.63;;;22.00;88.60;;;;;;5054357;28;20829;-67
2023/09/19 10:56:38;;;;;;;0.80;0.80;;;21.10;90.60;;;;;;5072791;28;20912;-66
2023/09/19 10:59:16;;;;;;;1.17;1.10;;;20.50;91.90;;;;;;5073119;28;20908;-64
2023/09/19 11:01:50;;;;;;;0.40;0.40;;;20.10;93.00;;;;;;5072469;28;20406;-63
2023/09/19 11:04:29;;;;;;;0.97;0.57;;;20.00;94.40;;;;;;5072043;28;20410;-63
2023/09/19 11:07:14;;;;;;;0.80;0.67;;;20.30;94.20;;;;;;5071542;28;20437;-63
2023/09/19 11:09:47;;;;;;;1.60;0.60;;;20.40;92.50;;;;;;5072649;28;20778;-63
2023/09/19 11:12:40;;;;;;;1.40;1.30;;;20.50;93.10;;;;;;5072483;28;20393;-63
2023/09/19 11:15:08;;;;;;;1.33;0.40;;;20.60;93.80;;;;;;5054285;28;20471;-63
2023/09/19 11:17:41;;;;;;;1.33;0.70;;;20.70;93.20;;;;;;5072423;28;20411;-63
2023/09/19 11:22:51;;;;;;;0.70;0.70;;;21.00;92.30;;;;;;5072518;28;20409;-65
2023/09/19 11:25:47;;;;;;;0.67;0.50;;;21.40;93.00;;;;;;5071762;28;20572;-64
2023/09/19 11:28:17;;;;;;;6.47;0.80;;;21.30;92.90;;;;;;5065453;28;20404;-65
2023/09/19 11:30:45;;;;;;;0.50;0.50;;;21.20;92.50;;;;;;5072332;28;20382;-64
2023/09/19 11:33:28;;;;;;;0.73;0.73;;;20.80;91.70;;;;;;5072366;28;20911;-64
2023/09/19 11:36:19;;;;;;;0.70;0.70;;;20.50;92.70;;;;;;5053560;28;20450;-65
2023/09/19 11:38:45;;;;;;;0.70;0.60;;;20.40;93.20;;;;;;5072113;28;20826;-65
2023/09/19 11:41:26;;;;;;;0.70;0.70;;;20.60;92.50;;;;;;5072141;28;20475;-64
2023/09/19 11:43:58;;;;;;;0.83;0.70;;;20.80;91.70;;;;;;5071818;28;20458;-64
2023/09/19 11:46:25;;;;;;;0.63;0.63;;;20.90;90.90;;;;;;5071197;28;20908;-64
2023/09/19 11:48:53;;;;;;;0.57;0.53;;;20.90;91.70;;;;;;5069806;28;20400;-64
2023/09/19 11:51:23;;;;;;;0.80;0.80;;;20.90;92.10;;;;;;5051989;28;20415;-64
2023/09/19 11:53:53;;;;;;;1.23;0.83;;;21.10;91.50;;;;;;5063085;28;20489;-64
2023/09/19 11:56:25;;;;;;;0.77;0.70;;;21.20;91.00;;;;;;5071497;28;20434;-63
2023/09/19 11:58:53;;;;;;;0.40;0.40;;;21.30;90.70;;;;;;5071736;28;20771;-65
2023/09/19 12:01:31;;;;;;;1.70;0.63;;;21.10;90.40;;;;;;5059538;28;20842;-63
2023/09/19 12:03:59;;;;;;;0.50;0.50;;;21.10;90.60;;;;;;5051701;28;20485;-63
2023/09/19 12:06:35;;;;;;;1.47;0.43;;;21.10;91.60;;;;;;5051190;28;20453;-63
2023/09/19 12:09:06;;;;;;;0.50;0.50;;;21.20;92.50;;;;;;5051451;28;20408;-63
2023/09/19 12:11:33;;;;;;;1.20;1.00;;;21.20;91.70;;;;;;5051900;28;20400;-63
2023/09/19 12:14:01;;;;;;;0.60;0.47;;;21.60;91.60;;;;;;5056546;28;20842;-63
2023/09/19 12:16:30;;;;;;;0.40;0.40;;;21.90;90.60;;;;;;5061157;28;20798;-63
2023/09/19 12:18:57;;;;;;;0.50;0.50;;;22.20;89.40;;;;;;5070394;28;20404;-63
2023/09/19 12:21:23;;;;;;;0.80;0.70;;;22.30;90.90;;;;;;5070816;28;20925;-63
2023/09/19 12:24:19;;;;;;;0.37;0.37;;;22.20;88.00;;;;;;5071225;28;20446;-64
2023/09/19 12:26:52;;;;;;;0.53;0.40;;;22.20;89.80;;;;;;5050385;28;20209;-63
2023/09/19 12:29:20;;;;;;;1.60;0.50;;;22.20;88.50;;;;;;5071503;28;20454;-63
2023/09/19 12:31:51;;;;;;;0.60;0.60;;;22.30;90.30;;;;;;5071334;28;20419;-63
2023/09/19 12:34:21;;;;;;;0.60;0.60;;;22.10;86.30;;;;;;5071278;28;20422;-63
2023/09/19 12:36:49;;;;;;;0.60;0.60;;;21.80;87.70;;;;;;5070544;28;20431;-63
2023/09/19 12:39:25;;;;;;;0.40;0.40;;;21.80;86.40;;;;;;5071443;28;20478;-63
2023/09/19 12:41:53;;;;;;;0.87;0.73;;;21.80;87.10;;;;;;5071355;28;20446;-63
2023/09/19 12:44:19;;;;;;;0.60;0.50;;;21.80;87.40;;;;;;5070946;28;20411;-63
2023/09/19 12:46:45;;;;;;;0.40;0.40;;;21.70;87.30;;;;;;5070713;28;20797;-63
2023/09/19 12:49:20;;;;;;;0.43;0.43;;;21.70;85.50;;;;;;5071107;28;20415;-63
2023/09/19 12:51:49;;;;;;;0.90;0.40;;;21.30;88.80;;;;;;5069943;28;20172;-63
2023/09/19 12:54:18;;;;;;;0.73;0.53;;;21.40;88.50;;;;;;5071999;28;20454;-63
2023/09/19 12:56:44;;;;;;;0.70;0.70;;;21.70;86.40;;;;;;5074472;28;20500;-63
2023/09/19 12:59:13;;;;;;;0.73;0.73;;;21.90;90.20;;;;;;5075112;28;20399;-63
2023/09/19 13:01:45;;;;;;;0.70;0.50;;;22.10;88.70;;;;;;5075079;28;20414;-63
2023/09/19 13:04:19;;;;;;;0.80;0.80;;;22.20;86.20;;;;;;5074751;28;20411;-63